createdAt,value
2024-03-03T00:02:19.464Z,8.43
2024-03-03T00:05:22.275Z,8.70
2024-03-03T00:08:25.595Z,9.48
2024-03-03T00:11:29.021Z,7.93
2024-03-03T00:14:33.174Z,8.63
2024-03-03T00:17:35.978Z,8.32
2024-03-03T00:20:38.852Z,8.30
2024-03-03T00:23:41.704Z,9.10
2024-03-03T00:26:44.672Z,9.02
2024-03-03T00:29:48.841Z,8.20
2024-03-03T00:32:51.624Z,8.63
2024-03-03T00:35:54.430Z,8.77
2024-03-03T00:38:57.237Z,8.85
2024-03-03T00:42:00.043Z,9.32
2024-03-03T00:45:04.588Z,9.45
2024-03-03T00:48:08.362Z,8.70
2024-03-03T00:51:11.204Z,9.15
2024-03-03T00:54:14.019Z,9.82
2024-03-03T00:57:16.980Z,9.52
2024-03-03T01:00:21.391Z,9.77
2024-03-03T01:03:24.191Z,9.30
2024-03-03T01:06:26.974Z,10.15
2024-03-03T01:09:30.341Z,10.00
2024-03-03T01:12:33.194Z,9.27
2024-03-03T01:15:37.454Z,9.75
2024-03-03T01:18:40.356Z,9.40
2024-03-03T01:21:43.418Z,9.55
2024-03-03T01:24:46.205Z,10.02
2024-03-03T01:27:49.028Z,10.05
2024-03-03T01:30:53.166Z,9.80
2024-03-03T01:33:56.050Z,9.65
2024-03-03T01:36:58.902Z,9.27
2024-03-03T01:40:01.814Z,8.95
2024-03-03T01:43:05.584Z,9.10
2024-03-03T01:46:11.450Z,9.77
2024-03-03T01:49:16.478Z,9.45
2024-03-03T01:52:19.667Z,9.45
2024-03-03T01:55:24.596Z,9.93
2024-03-03T01:58:29.266Z,8.70
2024-03-03T02:01:33.950Z,9.88
2024-03-03T02:04:37.899Z,8.32
2024-03-03T02:07:41.111Z,10.57
2024-03-03T02:10:44.352Z,9.23
2024-03-03T02:13:47.237Z,9.48
2024-03-03T02:16:52.305Z,9.52
2024-03-03T02:19:55.486Z,10.05
2024-03-03T02:22:59.622Z,9.90
2024-03-03T02:26:02.625Z,9.57
2024-03-03T02:29:06.404Z,10.23
2024-03-03T02:32:09.215Z,9.80
2024-03-03T02:35:11.999Z,9.73
2024-03-03T02:38:16.163Z,9.88
2024-03-03T02:41:19.180Z,9.35
2024-03-03T02:44:23.678Z,9.60
2024-03-03T02:47:26.494Z,9.60
2024-03-03T02:50:29.259Z,9.73
2024-03-03T02:53:33.387Z,9.15
2024-03-03T02:56:36.149Z,9.52
2024-03-03T02:59:38.981Z,9.40
2024-03-03T03:02:41.852Z,9.65
2024-03-03T03:05:44.619Z,9.27
2024-03-03T03:08:48.747Z,9.32
2024-03-03T03:11:51.702Z,9.25
2024-03-03T03:14:54.640Z,8.77
2024-03-03T03:17:57.459Z,9.07
2024-03-03T03:21:00.600Z,10.00
2024-03-03T03:24:05.158Z,9.00
2024-03-03T03:27:07.949Z,9.32
2024-03-03T03:30:12.219Z,9.57
2024-03-03T03:33:16.245Z,9.32
2024-03-03T03:36:20.081Z,8.88
2024-03-03T03:39:24.702Z,9.13
2024-03-03T03:42:27.515Z,9.23
2024-03-03T03:45:30.294Z,8.52
2024-03-03T03:48:33.126Z,9.43
2024-03-03T03:51:35.975Z,9.60
2024-03-03T03:54:40.177Z,8.95
2024-03-03T03:57:42.986Z,9.30
2024-03-03T04:00:45.933Z,9.32
2024-03-03T04:03:49.085Z,9.25
2024-03-03T04:06:51.967Z,9.05
2024-03-03T04:09:56.141Z,8.93
2024-03-03T04:12:58.917Z,9.68
2024-03-03T04:16:01.759Z,9.15
2024-03-03T04:19:04.734Z,9.25
2024-03-03T04:22:07.674Z,8.93
2024-03-03T04:25:12.125Z,9.07
2024-03-03T04:28:15.091Z,8.98
2024-03-03T04:31:17.958Z,9.57
2024-03-03T04:34:20.822Z,9.57
2024-03-03T04:37:23.735Z,8.32
2024-03-03T04:40:27.961Z,9.38
2024-03-03T04:43:30.794Z,9.27
2024-03-03T04:46:33.615Z,8.95
2024-03-03T04:49:36.407Z,9.48
2024-03-03T04:52:39.848Z,9.35
2024-03-03T04:55:44.057Z,9.73
2024-03-03T04:58:46.892Z,9.85
2024-03-03T05:01:50.004Z,9.35
2024-03-03T05:04:52.915Z,9.57
2024-03-03T05:07:55.716Z,9.40
2024-03-03T05:10:59.957Z,9.57
2024-03-03T05:14:02.890Z,8.95
2024-03-03T05:17:06.113Z,10.23
2024-03-03T05:20:10.109Z,9.43
2024-03-03T05:23:12.912Z,9.50
2024-03-03T05:26:18.678Z,9.43
2024-03-03T05:29:21.505Z,9.60
2024-03-03T05:32:24.510Z,10.45
2024-03-03T05:35:27.337Z,9.35
2024-03-03T05:38:30.110Z,9.60
2024-03-03T05:41:34.261Z,9.73
2024-03-03T05:44:37.049Z,8.77
2024-03-03T05:47:40.049Z,8.93
2024-03-03T05:50:43.052Z,9.38
2024-03-03T05:53:46.542Z,9.75
2024-03-03T05:56:51.025Z,9.75
2024-03-03T05:59:53.923Z,10.15
2024-03-03T06:02:56.696Z,9.23
2024-03-03T06:05:59.463Z,9.68
2024-03-03T06:09:02.245Z,8.85
2024-03-03T06:12:06.928Z,8.98
2024-03-03T06:15:10.463Z,9.52
2024-03-03T06:18:13.340Z,9.50
2024-03-03T06:21:16.114Z,10.15
2024-03-03T06:24:19.090Z,9.85
2024-03-03T06:27:23.262Z,9.85
2024-03-03T06:30:26.395Z,10.07
2024-03-03T06:33:29.253Z,9.75
2024-03-03T06:36:32.144Z,9.70
2024-03-03T06:39:34.943Z,9.68
2024-03-03T06:42:40.641Z,9.77
2024-03-03T06:45:44.613Z,10.50
2024-03-03T06:48:47.450Z,9.70
2024-03-03T06:51:50.335Z,9.63
2024-03-03T06:54:53.148Z,9.90
2024-03-03T06:57:57.626Z,9.73
2024-03-03T07:01:00.660Z,10.63
2024-03-03T07:04:20.236Z,10.15
2024-03-03T07:07:23.800Z,9.75
2024-03-03T07:10:26.889Z,10.25
2024-03-03T07:13:31.013Z,10.00
2024-03-03T07:16:33.941Z,9.77
2024-03-03T07:19:36.924Z,9.65
2024-03-03T07:22:39.766Z,9.82
2024-03-03T07:25:42.595Z,9.43
2024-03-03T07:28:46.733Z,9.65
2024-03-03T07:31:49.495Z,9.80
2024-03-03T07:34:52.420Z,9.25
2024-03-03T07:37:55.256Z,9.75
2024-03-03T07:40:58.410Z,9.65
2024-03-03T07:44:04.924Z,9.70
2024-03-03T07:47:07.987Z,9.18
2024-03-03T07:50:11.126Z,9.50
2024-03-03T07:53:14.063Z,9.45
2024-03-03T07:56:17.021Z,10.68
2024-03-03T07:59:21.148Z,9.85
2024-03-03T08:02:23.905Z,8.98
2024-03-03T08:05:26.753Z,9.80
2024-03-03T08:08:29.559Z,9.15
2024-03-03T08:11:33.478Z,9.48
2024-03-03T08:14:37.652Z,9.32
2024-03-03T08:17:41.182Z,9.85
2024-03-03T08:20:44.043Z,9.20
2024-03-03T08:23:46.834Z,8.85
2024-03-03T08:26:50.172Z,9.23
2024-03-03T08:29:54.352Z,9.55
2024-03-03T08:32:57.255Z,9.70
2024-03-03T08:36:00.549Z,10.07
2024-03-03T08:39:04.218Z,9.75
2024-03-03T08:42:07.070Z,9.60
2024-03-03T08:45:14.222Z,9.65
2024-03-03T08:48:16.999Z,10.07
2024-03-03T08:51:19.763Z,10.10
2024-03-03T08:54:22.565Z,9.35
2024-03-03T08:57:25.759Z,9.73
2024-03-03T09:00:29.870Z,9.02
2024-03-03T09:03:32.852Z,9.32
2024-03-03T09:06:35.642Z,9.02
2024-03-03T09:09:41.665Z,9.52
2024-03-03T09:12:46.319Z,9.05
2024-03-03T09:15:50.628Z,9.55
2024-03-03T09:18:55.187Z,9.52
2024-03-03T09:21:58.176Z,9.30
2024-03-03T09:25:01.056Z,9.50
2024-03-03T09:28:04.073Z,8.95
2024-03-03T09:31:08.378Z,9.55
2024-03-03T09:34:11.220Z,9.23
2024-03-03T09:37:14.384Z,9.50
2024-03-03T09:40:17.746Z,9.63
2024-03-03T09:43:24.819Z,10.20
2024-03-03T09:46:31.319Z,9.05
2024-03-03T09:49:35.263Z,9.68
2024-03-03T09:52:39.702Z,9.88
2024-03-03T09:55:43.315Z,9.88
2024-03-03T09:58:46.201Z,9.45
2024-03-03T10:01:52.837Z,9.10
2024-03-03T10:04:59.254Z,10.13
2024-03-03T10:08:03.066Z,9.82
2024-03-03T10:11:10.619Z,9.27
2024-03-03T10:14:14.199Z,8.63
2024-03-03T10:17:18.534Z,10.10
2024-03-03T10:20:21.350Z,9.00
2024-03-03T10:23:25.462Z,9.82
2024-03-03T10:26:36.709Z,9.43
2024-03-03T10:29:41.697Z,9.50
2024-03-03T10:32:47.462Z,9.30
2024-03-03T10:36:06.810Z,9.43
2024-03-03T10:39:10.495Z,9.75
2024-03-03T10:42:13.328Z,10.38
2024-03-03T10:45:16.476Z,11.07
2024-03-03T10:48:20.689Z,11.30
2024-03-03T10:51:24.419Z,12.52
2024-03-03T10:54:27.899Z,22.23
2024-03-03T10:57:31.395Z,22.58
2024-03-03T11:00:37.147Z,23.40
2024-03-03T11:03:44.238Z,21.23
2024-03-03T11:06:47.092Z,21.58
2024-03-03T11:09:51.155Z,20.77
2024-03-03T11:12:57.271Z,18.65
2024-03-03T11:16:04.593Z,19.13
2024-03-03T11:19:13.358Z,18.83
2024-03-03T11:22:23.133Z,17.27
2024-03-03T11:25:29.432Z,16.63
2024-03-03T11:28:35.373Z,16.65
2024-03-03T11:31:39.929Z,16.52
2024-03-03T11:34:46.260Z,15.60
2024-03-03T11:37:49.902Z,15.60
2024-03-03T11:40:53.483Z,16.05
2024-03-03T11:43:56.297Z,15.80
2024-03-03T11:46:59.356Z,14.88
2024-03-03T11:50:19.108Z,14.43
2024-03-03T11:53:23.335Z,15.20
2024-03-03T11:56:29.308Z,15.35
2024-03-03T11:59:33.925Z,14.82
2024-03-03T12:02:39.511Z,15.00
2024-03-03T12:05:43.837Z,14.63
2024-03-03T12:08:54.959Z,14.35
2024-03-03T12:11:58.059Z,14.13
2024-03-03T12:15:01.747Z,14.32
2024-03-03T12:18:11.116Z,14.32
2024-03-03T12:21:16.282Z,13.98
2024-03-03T12:24:19.055Z,14.43
2024-03-03T12:27:22.287Z,14.43
2024-03-03T12:30:36.651Z,14.07
2024-03-03T12:33:41.471Z,13.88
2024-03-03T12:36:46.381Z,14.35
2024-03-03T12:39:49.282Z,14.25
2024-03-03T12:42:52.705Z,13.60
2024-03-03T12:45:55.996Z,14.10
2024-03-03T12:48:58.857Z,14.55
2024-03-03T12:52:03.425Z,13.65
2024-03-03T12:55:07.854Z,13.15
2024-03-03T12:58:10.770Z,12.98
2024-03-03T13:01:14.416Z,13.98
2024-03-03T13:04:17.296Z,12.50
2024-03-03T13:07:22.595Z,13.45
2024-03-03T13:10:26.727Z,14.05
2024-03-03T13:13:29.610Z,12.93
2024-03-03T13:16:34.305Z,13.75
2024-03-03T13:19:45.007Z,13.80
2024-03-03T13:22:49.469Z,12.93
2024-03-03T13:25:53.421Z,12.70
2024-03-03T13:28:56.583Z,12.98
2024-03-03T13:31:59.369Z,12.52
2024-03-03T13:35:02.162Z,12.77
2024-03-03T13:38:06.631Z,12.38
2024-03-03T13:41:09.453Z,13.35
2024-03-03T13:44:12.502Z,13.32
2024-03-03T13:47:15.814Z,12.85
2024-03-03T13:50:18.711Z,12.63
2024-03-03T13:53:23.748Z,12.80
2024-03-03T13:56:26.958Z,13.48
2024-03-03T13:59:29.960Z,12.73
2024-03-03T14:02:32.811Z,12.65
2024-03-03T14:05:35.776Z,13.23
2024-03-03T14:08:40.450Z,12.68
2024-03-03T14:11:43.701Z,12.00
2024-03-03T14:14:46.598Z,13.38
2024-03-03T14:17:50.284Z,11.95
2024-03-03T14:20:53.202Z,12.90
2024-03-03T14:23:57.724Z,13.32
2024-03-03T14:27:00.527Z,12.15
2024-03-03T14:30:03.710Z,12.70
2024-03-03T14:33:07.121Z,12.77
2024-03-03T14:36:10.581Z,12.20
2024-03-03T14:39:14.716Z,12.20
2024-03-03T14:42:19.116Z,11.20
2024-03-03T14:45:22.230Z,12.77
2024-03-03T14:48:25.154Z,12.18
2024-03-03T14:51:28.483Z,11.93
2024-03-03T14:54:32.647Z,12.30
2024-03-03T14:57:36.489Z,12.13
2024-03-03T15:00:40.239Z,11.70
2024-03-03T15:03:42.976Z,11.82
2024-03-03T15:06:46.158Z,12.35
2024-03-03T15:09:50.387Z,11.50
2024-03-03T15:12:53.559Z,12.00
2024-03-03T15:15:56.413Z,11.50
2024-03-03T15:18:59.309Z,11.85
2024-03-03T15:22:02.098Z,11.02
2024-03-03T15:25:08.165Z,11.80
2024-03-03T15:28:11.639Z,11.88
2024-03-03T15:31:14.463Z,11.23
2024-03-03T15:34:17.252Z,11.57
2024-03-03T15:37:21.096Z,11.55
2024-03-03T15:40:26.192Z,10.95
2024-03-03T15:43:29.024Z,11.55
2024-03-03T15:46:31.853Z,11.40
2024-03-03T15:49:35.181Z,11.13
2024-03-03T15:52:38.699Z,11.38
2024-03-03T15:55:42.933Z,10.52
2024-03-03T15:58:45.880Z,10.15
2024-03-03T16:01:50.462Z,10.35
2024-03-03T16:04:53.321Z,10.52
2024-03-03T16:07:56.302Z,10.82
2024-03-03T16:11:00.499Z,10.60
2024-03-03T16:14:03.536Z,11.23
2024-03-03T16:17:06.950Z,10.70
2024-03-03T16:20:10.629Z,10.95
2024-03-03T16:23:14.955Z,10.40
2024-03-03T16:26:19.451Z,11.00
2024-03-03T16:29:22.589Z,9.95
2024-03-03T16:32:25.601Z,10.02
2024-03-03T16:35:28.380Z,11.02
2024-03-03T16:38:31.163Z,10.73
2024-03-03T16:41:35.761Z,9.82
2024-03-03T16:44:40.628Z,9.88
2024-03-03T16:47:43.425Z,10.77
2024-03-03T16:50:46.229Z,10.27
2024-03-03T16:53:48.993Z,10.00
2024-03-03T16:56:53.611Z,9.77
2024-03-03T16:59:56.434Z,9.63
2024-03-03T17:02:59.326Z,9.90
2024-03-03T17:06:02.503Z,10.38
2024-03-03T17:09:05.820Z,10.98
2024-03-03T17:12:10.202Z,10.25
2024-03-03T17:15:13.086Z,10.57
2024-03-03T17:18:16.042Z,9.98
2024-03-03T17:21:18.822Z,9.40
2024-03-03T17:24:21.627Z,9.23
2024-03-03T17:27:25.758Z,10.15
2024-03-03T17:30:28.565Z,9.55
2024-03-03T17:33:31.405Z,9.90
2024-03-03T17:36:34.892Z,9.77
2024-03-03T17:39:37.753Z,9.35
2024-03-03T17:42:42.075Z,10.07
2024-03-03T17:45:44.982Z,9.13
2024-03-03T17:48:47.858Z,9.88
2024-03-03T17:51:50.779Z,9.57
2024-03-03T17:54:53.638Z,9.23
2024-03-03T17:57:57.806Z,9.52
2024-03-03T18:01:01.559Z,9.38
2024-03-03T18:04:05.164Z,9.15
2024-03-03T18:07:08.432Z,9.00
2024-03-03T18:10:12.034Z,10.32
2024-03-03T18:13:16.600Z,9.50
2024-03-03T18:16:19.858Z,9.02
2024-03-03T18:19:22.711Z,8.98
2024-03-03T18:22:26.077Z,9.80
2024-03-03T18:25:29.721Z,9.30
2024-03-03T18:28:34.090Z,9.30
2024-03-03T18:31:36.994Z,8.70
2024-03-03T18:34:39.842Z,10.55
2024-03-03T18:37:42.915Z,9.50
2024-03-03T18:40:45.931Z,9.38
2024-03-03T18:43:50.222Z,9.40
2024-03-03T18:46:53.220Z,8.52
2024-03-03T18:49:58.480Z,9.65
2024-03-03T18:53:01.273Z,9.60
2024-03-03T18:56:05.273Z,9.63
2024-03-03T18:59:10.299Z,9.60
2024-03-03T19:02:13.565Z,8.82
2024-03-03T19:05:16.392Z,8.82
2024-03-03T19:08:19.227Z,9.82
2024-03-03T19:11:22.443Z,9.25
2024-03-03T19:14:26.784Z,9.15
2024-03-03T19:17:29.700Z,8.93
2024-03-03T19:20:32.785Z,8.48
2024-03-03T19:23:35.630Z,9.27
2024-03-03T19:26:38.648Z,9.25
2024-03-03T19:29:43.393Z,9.02
2024-03-03T19:32:47.215Z,8.90
2024-03-03T19:35:50.048Z,9.80
2024-03-03T19:38:52.853Z,9.43
2024-03-03T19:41:56.129Z,9.40
2024-03-03T19:45:00.354Z,9.30
2024-03-03T19:48:03.562Z,9.32
2024-03-03T19:51:06.814Z,9.13
2024-03-03T19:54:09.642Z,9.35
2024-03-03T19:57:13.750Z,9.20
2024-03-03T20:00:18.559Z,9.30
2024-03-03T20:03:22.161Z,8.82
2024-03-03T20:06:25.377Z,8.43
2024-03-03T20:09:28.169Z,9.30
2024-03-03T20:12:31.141Z,8.98
2024-03-03T20:15:35.302Z,9.18
2024-03-03T20:18:40.850Z,8.32
2024-03-03T20:21:44.142Z,9.07
2024-03-03T20:24:48.006Z,8.55
2024-03-03T20:27:50.856Z,8.73
2024-03-03T20:30:55.057Z,8.35
2024-03-03T20:33:58.471Z,8.35
2024-03-03T20:37:01.329Z,7.80
2024-03-03T20:40:06.548Z,8.75
2024-03-03T20:43:09.510Z,8.85
2024-03-03T20:46:13.672Z,8.45
2024-03-03T20:49:18.765Z,8.93
2024-03-03T20:52:21.703Z,8.30
2024-03-03T20:55:24.565Z,7.88
2024-03-03T20:58:27.462Z,8.48
2024-03-03T21:01:33.315Z,8.02
2024-03-03T21:04:37.826Z,8.15
2024-03-03T21:07:40.874Z,8.30
2024-03-03T21:10:43.860Z,7.90
2024-03-03T21:13:46.779Z,9.20
2024-03-03T21:16:51.041Z,8.65
2024-03-03T21:19:53.922Z,8.77
2024-03-03T21:22:56.728Z,8.10
2024-03-03T21:26:01.415Z,7.88
2024-03-03T21:29:05.007Z,7.90
2024-03-03T21:32:09.318Z,8.35
2024-03-03T21:35:12.119Z,8.60
2024-03-03T21:38:15.127Z,8.13
2024-03-03T21:41:18.087Z,7.40
2024-03-03T21:44:20.891Z,8.15
2024-03-03T21:47:26.181Z,7.60
2024-03-03T21:50:28.999Z,7.78
2024-03-03T21:53:31.974Z,8.18
2024-03-03T21:56:34.742Z,8.10
2024-03-03T21:59:37.591Z,8.63
2024-03-03T22:02:41.939Z,7.35
2024-03-03T22:05:44.801Z,7.63
2024-03-03T22:08:47.902Z,8.10
2024-03-03T22:11:51.621Z,7.78
2024-03-03T22:14:54.478Z,7.85
2024-03-03T22:17:58.626Z,8.18
2024-03-03T22:21:01.400Z,7.10
2024-03-03T22:24:04.658Z,7.70
2024-03-03T22:27:08.008Z,8.25
2024-03-03T22:30:11.877Z,7.55
2024-03-03T22:33:16.126Z,8.15
2024-03-03T22:36:18.982Z,8.27
2024-03-03T22:39:23.159Z,8.57
2024-03-03T22:42:26.043Z,9.05
2024-03-03T22:45:28.835Z,7.82
2024-03-03T22:48:32.951Z,8.50
2024-03-03T22:51:35.777Z,7.63
2024-03-03T22:54:38.602Z,8.10
2024-03-03T22:57:41.481Z,8.02
2024-03-03T23:00:44.381Z,8.13
2024-03-03T23:03:48.565Z,8.18
2024-03-03T23:06:51.433Z,7.65
2024-03-03T23:09:54.282Z,7.78
2024-03-03T23:12:57.147Z,7.38
2024-03-03T23:15:59.968Z,8.18
2024-03-03T23:19:05.247Z,7.60
2024-03-03T23:22:08.057Z,7.85
2024-03-03T23:25:11.090Z,8.40
2024-03-03T23:28:13.901Z,7.70
2024-03-03T23:31:16.934Z,7.40
2024-03-03T23:34:21.185Z,7.93
2024-03-03T23:37:24.072Z,8.10
2024-03-03T23:40:27.603Z,8.02
2024-03-03T23:43:30.618Z,8.30
2024-03-03T23:46:34.727Z,7.55
2024-03-03T23:49:39.052Z,8.13
2024-03-03T23:52:42.766Z,7.75
2024-03-03T23:55:45.771Z,7.78
2024-03-03T23:58:48.746Z,7.68
